Time;durP1;ratioP1;P1;durP2;ratioP2;P2;SDS_P1;SDS_P2;PMS_P1;PMS_P2;Temp;Humidity;BMP_temperature;BMP_pressure;BME280_temperature;BME280_humidity;BME280_pressure;Samples;Min_cycle;Max_cycle;Signal;HPM_P1;HPM_P2
2023/05/28 00:00:47;;;;;;;;;;;20.90;50.40;;;21.02;35.88;98817.16;5055221;27;123914;-83
2023/05/28 00:03:17;;;;;;;;;;;20.90;50.70;;;20.98;36.18;98814.28;5088910;27;124372;-83
2023/05/28 00:05:46;;;;;;;;;;;20.80;50.60;;;20.93;35.98;98811.84;5089993;27;114406;-83
2023/05/28 00:08:15;;;;;;;;;;;20.70;50.70;;;20.89;36.27;98805.34;5073399;27;113766;-83
2023/05/28 00:10:45;;;;;;;;;;;20.70;50.90;;;20.85;36.24;98812.94;5068045;27;123718;-83
2023/05/28 00:13:13;;;;;;;;;;;20.70;51.10;;;20.81;36.15;98803.63;5088196;27;124545;-84
2023/05/28 00:15:40;;;;;;;;;;;20.60;51.10;;;20.76;36.21;98806.78;5086515;27;115062;-84
2023/05/28 00:18:11;;;;;;;;;;;20.60;51.20;;;20.73;36.53;98806.34;5087067;27;114661;-84
2023/05/28 00:20:38;;;;;;;;;;;20.50;51.20;;;20.71;36.20;98805.94;5086695;27;124102;-84
2023/05/28 00:23:09;;;;;;;;;;;20.50;51.30;;;20.68;36.64;98800.25;5055919;27;122947;-83
2023/05/28 00:25:35;;;;;;;;;;;20.50;51.50;;;20.63;36.47;98798.59;5085527;27;114817;-83
2023/05/28 00:28:01;;;;;;;;;;;20.40;51.40;;;20.58;36.72;98790.50;5074965;27;113671;-84
2023/05/28 00:30:29;;;;;;;;;;;20.40;51.50;;;20.55;36.60;98796.84;5089213;27;124716;-84
2023/05/28 00:32:57;;;;;;;;;;;20.30;51.60;;;20.50;36.49;98800.78;5087226;27;124728;-84
2023/05/28 00:35:25;;;;;;;;;;;20.30;51.80;;;20.48;36.91;98785.50;5089800;27;114260;-84
2023/05/28 00:37:58;;;;;;;;;;;20.30;51.90;;;20.45;36.78;98794.69;5058736;27;113248;-84
2023/05/28 00:40:27;;;;;;;;;;;20.20;52.00;;;20.41;36.99;98788.22;5074062;27;124038;-83
2023/05/28 00:42:53;;;;;;;;;;;20.20;52.10;;;20.38;37.16;98791.78;5055459;27;123457;-84
2023/05/28 00:45:21;;;;;;;;;;;20.20;52.30;;;20.37;37.25;98790.16;5074338;27;114428;-83
2023/05/28 00:47:48;;;;;;;;;;;20.10;52.40;;;20.33;37.35;98787.28;5059231;27;113694;-84
2023/05/28 00:50:16;;;;;;;;;;;20.10;52.60;;;20.30;37.50;98785.25;5052418;27;123714;-83
2023/05/28 00:52:46;;;;;;;;;;;20.10;52.60;;;20.27;37.31;98786.00;5082024;27;124616;-83
2023/05/28 00:55:14;;;;;;;;;;;20.10;52.80;;;20.25;37.69;98797.59;5057245;27;114113;-84
2023/05/28 00:57:46;;;;;;;;;;;20.00;52.90;;;20.21;37.95;98788.31;5045494;27;113533;-84
2023/05/28 01:00:13;;;;;;;;;;;20.00;53.10;;;20.16;37.87;98785.03;5074716;27;124808;-84
2023/05/28 01:02:40;;;;;;;;;;;20.00;53.20;;;20.12;37.85;98784.97;5084717;27;123844;-83
2023/05/28 01:05:07;;;;;;;;;;;19.90;53.20;;;20.07;37.89;98782.50;5088678;27;115397;-85
2023/05/28 01:07:34;;;;;;;;;;;19.90;53.30;;;20.03;38.29;98785.22;5079219;27;114774;-84
2023/05/28 01:10:00;;;;;;;;;;;19.80;53.30;;;19.98;38.33;98782.75;5082836;27;124864;-84
2023/05/28 01:12:32;;;;;;;;;;;19.80;53.50;;;19.95;38.27;98779.88;5077038;27;124063;-84
2023/05/28 01:14:58;;;;;;;;;;;19.80;53.70;;;19.91;38.50;98785.44;5085359;27;114384;-84
2023/05/28 01:17:25;;;;;;;;;;;19.70;53.70;;;19.88;38.29;98785.38;5084260;27;113668;-84
2023/05/28 01:19:51;;;;;;;;;;;19.70;53.80;;;19.85;38.38;98779.34;5080046;27;124378;-83
2023/05/28 01:22:20;;;;;;;;;;;19.60;53.80;;;19.81;38.59;98781.28;5088489;27;123852;-85
2023/05/28 01:24:47;;;;;;;;;;;19.60;54.00;;;19.77;38.69;98780.41;5079376;27;114643;-84
2023/05/28 01:27:13;;;;;;;;;;;19.50;54.00;;;19.74;38.60;98778.34;5050259;27;112667;-84
2023/05/28 01:29:39;;;;;;;;;;;19.60;54.20;;;19.71;38.86;98781.09;5065523;27;124025;-84
2023/05/28 01:32:06;;;;;;;;;;;19.50;54.10;;;19.67;38.64;98778.22;5087286;27;124718;-84
2023/05/28 01:34:32;;;;;;;;;;;19.50;54.20;;;19.64;38.88;98781.75;5083902;27;114251;-84
2023/05/28 01:37:04;;;;;;;;;;;19.40;54.20;;;19.62;38.68;98773.72;5065615;27;112785;-84
2023/05/28 01:39:40;;;;;;;;;;;19.40;54.30;;;19.60;38.92;98778.06;5070044;27;124607;-84
2023/05/28 01:42:07;;;;;;;;;;;19.40;54.40;;;19.57;38.69;98778.81;5082510;27;124127;-84
2023/05/28 01:44:36;;;;;;;;;;;19.70;54.80;;;19.54;38.84;98776.78;5070352;27;114411;-84
2023/05/28 01:47:03;;;;;;;;;;;19.30;54.50;;;19.52;39.03;98776.31;5058319;27;112699;-84
2023/05/28 01:49:35;;;;;;;;;;;19.30;54.50;;;19.48;39.06;98767.03;5067215;27;124155;-85
2023/05/28 01:52:02;;;;;;;;;;;19.20;54.60;;;19.46;39.15;98775.03;5073779;27;124124;-84
2023/05/28 01:54:29;;;;;;;;;;;19.20;54.60;;;19.41;39.15;98774.13;5071987;27;115072;-84
2023/05/28 01:56:55;;;;;;;;;;;19.20;54.70;;;19.38;39.34;98774.06;5090352;27;114890;-85
2023/05/28 01:59:22;;;;;;;;;;;19.20;54.80;;;19.35;39.16;98774.81;5065593;27;124305;-85
2023/05/28 02:01:48;;;;;;;;;;;19.10;54.80;;;19.33;39.38;98779.97;5059231;27;123847;-84
2023/05/28 02:04:14;;;;;;;;;;;19.10;54.90;;;19.29;39.31;98771.53;5057649;27;114359;-84
2023/05/28 02:06:45;;;;;;;;;;;19.10;55.00;;;19.26;39.46;98772.25;5067918;27;113814;-84
2023/05/28 02:09:11;;;;;;;;;;;19.00;55.10;;;19.23;39.65;98778.59;5086368;27;124044;-85
2023/05/28 02:11:40;;;;;;;;;;;19.00;55.20;;;19.19;39.49;98775.72;5088135;27;124111;-85
2023/05/28 02:14:14;;;;;;;;;;;19.00;55.30;;;19.16;39.67;98772.88;5069295;27;114381;-85
2023/05/28 02:16:47;;;;;;;;;;;18.90;55.40;;;19.12;39.90;98774.78;5087409;27;113988;-85
2023/05/28 02:19:14;;;;;;;;;;;18.90;55.50;;;19.09;39.96;98767.91;5066169;27;124789;-85
2023/05/28 02:21:41;;;;;;;;;;;18.80;55.50;;;19.07;40.03;98769.47;5059101;27;123743;-85
2023/05/28 02:24:07;;;;;;;;;;;18.80;55.70;;;19.05;39.88;98764.25;5068711;27;114735;-85
2023/05/28 02:26:36;;;;;;;;;;;18.80;55.90;;;19.03;40.11;98765.81;5076535;27;113985;-85
2023/05/28 02:29:02;;;;;;;;;;;18.80;56.00;;;19.01;40.12;98770.94;5070405;27;124321;-85
2023/05/28 02:31:29;;;;;;;;;;;18.80;56.00;;;18.98;40.18;98766.91;5087248;27;124220;-85
2023/05/28 02:33:55;;;;;;;;;;;18.70;56.00;;;18.95;40.27;98765.66;5066915;27;114380;-85
2023/05/28 02:36:22;;;;;;;;;;;18.70;56.10;;;18.92;40.13;98760.78;5085056;27;113750;-85
2023/05/28 02:38:51;;;;;;;;;;;18.70;56.10;;;18.91;40.42;98761.97;5084530;27;124373;-85
2023/05/28 02:41:17;;;;;;;;;;;18.70;56.20;;;18.87;40.32;98763.09;5079549;27;123432;-85
2023/05/28 02:43:44;;;;;;;;;;;18.60;56.20;;;18.81;40.58;98759.78;5086038;27;115894;-85
2023/05/28 02:46:10;;;;;;;;;;;18.60;56.30;;;18.76;40.68;98754.47;5087849;27;115211;-86
2023/05/28 02:48:37;;;;;;;;;;;18.50;56.30;;;18.71;40.66;98758.31;5088001;27;123972;-85
2023/05/28 02:51:03;;;;;;;;;;;18.50;56.50;;;18.67;40.68;98763.06;5076335;27;123587;-86
2023/05/28 02:53:33;;;;;;;;;;;18.50;56.70;;;18.62;40.96;98762.50;5080772;27;114817;-86
2023/05/28 02:55:59;;;;;;;;;;;18.40;56.70;;;18.59;40.93;98760.44;5076880;27;114033;-85
2023/05/28 02:58:26;;;;;;;;;;;18.40;56.80;;;18.55;40.98;98766.78;5090760;27;125436;-86
2023/05/28 03:00:55;;;;;;;;;;;18.30;56.90;;;18.54;41.20;98769.97;5089224;27;124102;-85
2023/05/28 03:03:23;;;;;;;;;;;18.30;57.00;;;18.50;41.22;98775.47;5078251;27;113416;-84
2023/05/28 03:05:52;;;;;;;;;;;18.30;57.20;;;18.48;41.35;98774.22;5089107;27;113618;-85
2023/05/28 03:08:18;;;;;;;;;;;18.30;57.30;;;18.46;41.28;98779.38;5066483;27;124889;-84
2023/05/28 03:10:47;;;;;;;;;;;18.20;57.30;;;18.40;41.55;98767.63;5084549;27;123924;-85
2023/05/28 03:13:13;;;;;;;;;;;18.20;57.50;;;18.38;41.60;98772.00;5084350;27;114493;-85
2023/05/28 03:15:39;;;;;;;;;;;18.10;57.60;;;18.35;41.68;98775.50;5090667;27;113944;-84
2023/05/28 03:18:05;;;;;;;;;;;18.10;57.70;;;18.30;41.77;98776.63;5047344;27;123217;-85
2023/05/28 03:20:32;;;;;;;;;;;18.10;58.00;;;18.26;41.91;98775.72;5085627;27;123663;-85
2023/05/28 03:22:58;;;;;;;;;;;18.00;58.00;;;18.22;42.01;98780.44;5082916;27;116392;-85
2023/05/28 03:25:25;;;;;;;;;;;18.00;58.10;;;18.20;41.98;98783.59;5084886;27;113275;-85
2023/05/28 03:27:54;;;;;;;;;;;18.00;58.30;;;18.17;42.22;98777.91;5085728;27;123934;-85
2023/05/28 03:30:21;;;;;;;;;;;17.90;58.30;;;18.15;42.26;98785.84;5082949;27;123990;-85
2023/05/28 03:32:49;;;;;;;;;;;17.90;58.50;;;18.11;42.47;98782.97;5086317;27;115248;-85
2023/05/28 03:35:16;;;;;;;;;;;17.90;58.60;;;18.07;42.61;98782.88;5053561;27;115126;-84
2023/05/28 03:37:44;;;;;;;;;;;17.80;58.70;;;18.03;42.60;98779.19;5067888;27;124192;-85
2023/05/28 03:40:11;;;;;;;;;;;17.80;58.90;;;18.01;42.54;98784.34;5071819;27;123625;-84
2023/05/28 03:42:38;;;;;;;;;;;16.30;57.60;;;17.95;42.79;98788.59;5071062;27;114516;-85
2023/05/28 03:45:05;;;;;;;;;;;17.70;59.00;;;17.93;42.90;98776.94;5059600;27;113688;-85
2023/05/28 03:47:32;;;;;;;;;;;17.70;59.20;;;17.92;42.75;98777.28;5072972;27;123739;-84
2023/05/28 03:49:59;;;;;;;;;;;17.70;59.30;;;17.92;42.93;98777.28;5089919;27;123211;-85
2023/05/28 03:52:25;;;;;;;;;;;17.60;59.40;;;17.90;43.00;98777.69;5072328;27;114616;-85
2023/05/28 03:54:51;;;;;;;;;;;17.60;59.50;;;17.91;43.06;98782.09;5082733;27;113720;-85
2023/05/28 03:57:18;;;;;;;;;;;17.60;59.60;;;17.94;43.07;98784.16;5087762;27;124471;-85
2023/05/28 03:59:44;;;;;;;;;;;17.60;59.70;;;17.98;42.95;98781.47;5077605;27;123837;-84
2023/05/28 04:02:10;;;;;;;;;;;17.60;59.80;;;18.01;42.94;98780.72;5078717;27;114680;-84
2023/05/28 04:04:37;;;;;;;;;;;17.60;59.80;;;18.01;43.07;98783.53;5087096;27;113843;-85
2023/05/28 04:07:04;;;;;;;;;;;17.60;59.80;;;17.98;43.04;98776.69;5068149;27;126742;-85
2023/05/28 04:09:31;;;;;;;;;;;17.60;60.50;;;17.98;42.94;98775.88;5073987;27;123248;-85
2023/05/28 04:11:57;;;;;;;;;;;17.60;59.90;;;17.98;43.21;98781.47;5088703;27;114407;-85
2023/05/28 04:14:26;;;;;;;;;;;17.60;59.90;;;17.97;43.14;98769.44;5074704;27;113060;-85
2023/05/28 04:16:57;;;;;;;;;;;17.60;59.90;;;17.97;43.01;98777.81;5069692;27;123692;-85
2023/05/28 04:19:23;;;;;;;;;;;17.60;60.00;;;17.95;43.09;98777.41;5082047;27;123973;-85
2023/05/28 04:21:50;;;;;;;;;;;17.60;60.00;;;17.95;43.16;98773.81;5088646;27;115219;-85
2023/05/28 04:24:16;;;;;;;;;;;17.60;59.90;;;17.92;42.89;98772.53;5089860;27;114260;-85
2023/05/28 04:26:42;;;;;;;;;;;17.60;59.80;;;17.89;42.68;98781.63;5071332;27;123666;-85
2023/05/28 04:29:08;;;;;;;;;;;17.60;59.70;;;17.89;42.80;98778.81;5082925;27;124340;-85
2023/05/28 04:31:35;;;;;;;;;;;17.60;59.60;;;17.90;42.52;98793.63;5091691;27;115037;-84
2023/05/28 04:34:06;;;;;;;;;;;18.00;59.90;;;17.91;42.39;98782.09;5088130;27;114411;-85
2023/05/28 04:36:33;;;;;;;;;;;17.60;59.40;;;17.91;42.46;98781.28;5076408;27;124633;-85
2023/05/28 04:39:04;;;;;;;;;;;17.60;59.30;;;17.87;42.41;98782.00;5056844;27;123631;-84
2023/05/28 04:41:30;;;;;;;;;;;17.60;59.30;;;17.84;42.37;98782.72;5078982;27;114576;-85
2023/05/28 04:43:57;;;;;;;;;;;17.60;59.10;;;17.84;42.40;98782.72;5073784;27;113796;-85
2023/05/28 04:46:25;;;;;;;;;;;17.50;59.00;;;17.86;42.46;98785.16;5078687;27;124299;-85
2023/05/28 04:48:54;;;;;;;;;;;17.60;59.20;;;17.84;42.33;98787.50;5073770;27;123696;-85
2023/05/28 04:51:21;;;;;;;;;;;17.50;59.20;;;17.83;42.42;98791.47;5089735;27;114341;-85
2023/05/28 04:53:47;;;;;;;;;;;17.50;59.20;;;17.86;42.49;98785.16;5088336;27;113932;-86
2023/05/28 04:56:14;;;;;;;;;;;17.50;59.20;;;17.87;42.54;98792.38;5085108;27;124603;-86
2023/05/28 04:58:40;;;;;;;;;;;17.50;59.30;;;17.89;42.31;98795.59;5077827;27;124276;-85
2023/05/28 05:01:07;;;;;;;;;;;17.50;59.20;;;17.90;42.70;98788.84;5061389;27;114431;-85
2023/05/28 05:03:34;;;;;;;;;;;17.50;59.30;;;17.92;42.54;98796.88;5083172;27;113484;-85
2023/05/28 05:06:00;;;;;;;;;;;17.50;59.40;;;17.88;42.40;98796.78;5084218;27;123805;-85
2023/05/28 05:08:28;;;;;;;;;;;17.50;59.40;;;17.86;42.49;98796.31;5089974;27;123964;-85
2023/05/28 05:10:55;;;;;;;;;;;17.50;59.50;;;17.87;42.47;98792.38;5087827;27;115396;-85
2023/05/28 05:13:21;;;;;;;;;;;17.50;59.60;;;17.93;42.62;98802.09;5076811;27;114411;-84
2023/05/28 05:15:50;;;;;;;;;;;17.60;59.80;;;17.98;42.74;98799.03;5075825;27;124887;-85
2023/05/28 05:18:16;;;;;;;;;;;17.60;59.80;;;18.02;42.86;98791.53;5075961;27;124084;-85
2023/05/28 05:20:42;;;;;;;;;;;17.60;59.80;;;18.06;42.48;98784.06;5086883;27;114472;-86
2023/05/28 05:23:11;;;;;;;;;;;17.60;59.80;;;18.12;42.41;98798.56;5088901;27;113458;-85
2023/05/28 05:25:37;;;;;;;;;;;17.70;59.80;;;18.15;42.40;98792.25;5087900;27;125024;-85
2023/05/28 05:28:04;;;;;;;;;;;17.70;59.80;;;18.19;42.30;98792.31;5080589;27;124016;-85
2023/05/28 05:30:30;;;;;;;;;;;17.70;59.80;;;18.20;42.35;98791.16;5055553;27;113729;-85
2023/05/28 05:32:56;;;;;;;;;;;17.80;59.90;;;18.20;42.57;98783.59;5071242;27;113747;-85
2023/05/28 05:35:23;;;;;;;;;;;17.80;59.90;;;18.22;42.47;98791.63;5069175;27;124550;-85
2023/05/28 05:37:49;;;;;;;;;;;17.80;59.90;;;18.25;42.49;98786.09;5056371;27;123766;-85
2023/05/28 05:40:18;;;;;;;;;;;17.80;60.00;;;18.32;42.44;98791.88;5086730;27;114324;-86
2023/05/28 05:42:44;;;;;;;;;;;17.90;60.20;;;18.40;42.53;98789.22;5071037;27;113386;-86
2023/05/28 05:45:10;;;;;;;;;;;18.00;60.20;;;18.41;42.43;98791.66;5070499;27;123447;-85
2023/05/28 05:47:37;;;;;;;;;;;17.90;60.30;;;18.41;42.47;98791.66;5087627;27;123835;-85
2023/05/28 05:50:04;;;;;;;;;;;17.90;60.40;;;18.44;42.59;98792.91;5088190;27;114360;-85
2023/05/28 05:52:31;;;;;;;;;;;17.90;60.50;;;18.45;42.57;98798.13;5085391;27;113860;-85
2023/05/28 05:54:57;;;;;;;;;;;17.90;60.70;;;18.47;42.72;98789.38;5084684;27;123547;-86
2023/05/28 05:57:26;;;;;;;;;;;18.00;60.90;;;18.46;42.51;98796.97;5084182;27;123841;-84
2023/05/28 05:59:52;;;;;;;;;;;17.90;60.50;;;18.48;42.48;98794.63;5083013;27;115557;-86
2023/05/28 06:02:21;;;;;;;;;;;18.00;60.50;;;18.50;42.32;98794.25;5074906;27;113890;-85
2023/05/28 06:04:47;;;;;;;;;;;18.00;60.30;;;18.51;42.17;98788.28;5067869;27;123314;-85
2023/05/28 06:07:14;;;;;;;;;;;18.00;60.20;;;18.51;42.14;98790.25;5082867;27;124067;-85
2023/05/28 06:09:40;;;;;;;;;;;18.00;60.10;;;18.49;41.98;98798.22;5087248;27;114407;-85
2023/05/28 06:12:09;;;;;;;;;;;18.00;60.00;;;18.52;41.97;98797.50;5083446;27;113934;-86
2023/05/28 06:14:35;;;;;;;;;;;18.00;60.00;;;18.52;41.81;98801.09;5087214;27;124242;-84
2023/05/28 06:17:02;;;;;;;;;;;18.00;60.00;;;18.55;41.95;98797.56;5080832;27;123775;-85
2023/05/28 06:19:29;;;;;;;;;;;18.00;60.00;;;18.59;41.80;98803.25;5059180;27;113724;-85
2023/05/28 06:21:55;;;;;;;;;;;18.00;60.00;;;18.63;41.61;98794.94;5065026;27;113873;-85
2023/05/28 06:24:21;;;;;;;;;;;18.10;59.90;;;18.72;41.26;98806.72;5088756;27;124416;-85
2023/05/28 06:26:47;;;;;;;;;;;18.20;59.60;;;18.77;41.19;98801.66;5081086;27;123787;-84
2023/05/28 06:29:16;;;;;;;;;;;18.20;59.20;;;18.88;40.96;98801.09;5083179;27;114028;-84
2023/05/28 06:31:42;;;;;;;;;;;18.30;59.10;;;18.99;40.55;98802.13;5053966;27;113939;-85
2023/05/28 06:34:09;;;;;;;;;;;18.40;58.80;;;19.11;40.41;98792.78;5042775;27;124086;-84
2023/05/28 06:36:35;;;;;;;;;;;18.50;58.80;;;19.20;40.52;98796.94;5049439;27;123047;-84
2023/05/28 06:39:04;;;;;;;;;;;18.60;58.80;;;19.22;39.94;98796.59;5042673;27;114993;-84
2023/05/28 06:41:30;;;;;;;;;;;18.60;58.40;;;19.22;40.45;98788.19;5053445;27;113679;-84
2023/05/28 06:43:57;;;;;;;;;;;18.60;58.60;;;19.28;40.31;98792.28;5042289;27;124103;-84
2023/05/28 06:46:23;;;;;;;;;;;18.70;58.80;;;19.39;39.83;98798.91;5046504;27;123937;-84
2023/05/28 06:48:49;;;;;;;;;;;18.80;58.10;;;19.43;39.42;98793.38;5043012;27;115554;-83
2023/05/28 06:51:21;;;;;;;;;;;18.80;57.70;;;19.45;39.43;98796.63;5037017;27;114852;-83
2023/05/28 06:53:47;;;;;;;;;;;18.80;57.70;;;19.54;38.88;98804.78;5038056;27;124512;-84
2023/05/28 06:56:19;;;;;;;;;;;18.90;57.20;;;19.60;38.38;98797.69;5045043;27;124397;-83
2023/05/28 06:58:49;;;;;;;;;;;19.00;56.40;;;19.60;37.93;98800.50;5044901;27;114762;-84
2023/05/28 07:01:21;;;;;;;;;;;19.00;55.70;;;19.62;38.05;98801.75;5049845;27;112924;-82
2023/05/28 07:03:47;;;;;;;;;;;19.00;56.00;;;19.70;38.15;98799.91;5048659;27;124305;-83
2023/05/28 07:06:16;;;;;;;;;;;19.10;56.20;;;19.80;38.04;98792.84;5049883;27;124719;-82
2023/05/28 07:08:45;;;;;;;;;;;19.20;56.10;;;19.91;37.74;98798.63;5044616;27;114382;-83
2023/05/28 07:11:19;;;;;;;;;;;19.30;56.10;;;20.04;37.67;98800.06;5042716;27;113805;-84
2023/05/28 07:13:46;;;;;;;;;;;19.40;56.00;;;20.18;37.44;98799.50;5014318;27;123863;-83
2023/05/28 07:16:12;;;;;;;;;;;19.50;55.80;;;20.27;36.84;98798.03;5037411;27;124821;-82
2023/05/28 07:18:41;;;;;;;;;;;19.60;54.90;;;20.30;36.45;98797.28;5034481;27;114763;-85
2023/05/28 07:21:07;;;;;;;;;;;19.70;54.50;;;20.29;36.53;98798.47;5037147;27;114488;-84
2023/05/28 07:23:34;;;;;;;;;;;19.60;54.30;;;20.31;36.49;98809.34;5037925;27;126796;-83
2023/05/28 07:26:00;;;;;;;;;;;19.60;54.20;;;20.34;36.38;98804.94;5038304;27;125111;-84
2023/05/28 07:28:29;;;;;;;;;;;19.70;54.10;;;20.37;35.91;98807.00;5048323;27;114581;-84
2023/05/28 07:30:56;;;;;;;;;;;19.70;53.90;;;20.36;36.14;98803.38;5031458;27;113918;-83
2023/05/28 07:33:25;;;;;;;;;;;19.70;53.80;;;20.36;36.39;98803.38;5073419;27;123575;-84
2023/05/28 07:35:53;;;;;;;;;;;19.80;53.90;;;20.40;36.18;98811.84;5030500;27;126416;-83
2023/05/28 07:38:22;;;;;;;;;;;19.90;53.80;;;20.46;36.37;98805.53;5031921;27;115997;-82
2023/05/28 07:40:55;;;;;;;;;;;19.90;54.10;;;20.54;36.21;98812.09;5039731;27;115078;-83
2023/05/28 07:43:21;;;;;;;;;;;19.90;54.00;;;20.63;36.07;98801.41;5049207;27;124002;-81
2023/05/28 07:45:48;;;;;;;;;;;19.90;53.80;;;20.70;36.25;98803.50;5037349;27;124080;-82
2023/05/28 07:48:19;;;;;;;;;;;20.00;53.90;;;20.78;35.95;98801.59;5039905;27;114413;-83
2023/05/28 07:50:46;;;;;;;;;;;20.10;53.90;;;20.87;35.78;98800.09;5031377;27;113587;-82
2023/05/28 07:53:12;;;;;;;;;;;20.20;53.80;;;20.96;36.03;98811.88;5030434;27;123146;-82
2023/05/28 07:55:43;;;;;;;;;;;20.30;53.90;;;21.07;35.70;98805.59;5037121;27;124074;-83
2023/05/28 07:58:11;;;;;;;;;;;20.40;53.70;;;21.15;35.48;98801.66;5027173;27;114406;-82
2023/05/28 08:00:44;;;;;;;;;;;20.50;53.40;;;21.19;35.44;98800.50;5038965;27;114065;-82
2023/05/28 08:03:12;;;;;;;;;;;20.50;53.10;;;21.23;35.11;98808.19;5031067;27;123447;-82
2023/05/28 08:05:41;;;;;;;;;;;20.60;53.00;;;21.28;34.96;98802.19;5035414;27;124241;-83
2023/05/28 08:08:07;;;;;;;;;;;20.70;53.00;;;21.35;35.08;98799.47;5034675;27;114578;-82
2023/05/28 08:10:34;;;;;;;;;;;20.80;52.90;;;21.43;34.87;98798.38;5046326;27;113579;-82
2023/05/28 08:13:00;;;;;;;;;;;20.80;52.70;;;21.53;35.09;98797.69;5039413;27;125351;-82
2023/05/28 08:15:32;;;;;;;;;;;20.90;52.80;;;21.62;34.63;98792.53;5048743;27;124008;-81
2023/05/28 08:17:58;;;;;;;;;;;21.00;52.60;;;21.71;34.80;98791.41;5047523;27;114138;-81
2023/05/28 08:20:26;;;;;;;;;;;21.10;52.40;;;21.72;34.46;98790.25;5048881;27;113654;-81
2023/05/28 08:22:53;;;;;;;;;;;21.10;52.10;;;21.74;34.48;98787.84;5038946;27;123844;-81
2023/05/28 08:25:20;;;;;;;;;;;21.10;52.30;;;21.75;34.52;98789.47;5028150;27;123816;-82
2023/05/28 08:27:48;;;;;;;;;;;21.20;51.90;;;21.77;34.39;98784.25;5040165;27;115706;-82
2023/05/28 08:30:18;;;;;;;;;;;21.30;51.80;;;21.82;34.13;98779.09;5044158;27;114337;-83
2023/05/28 08:32:44;;;;;;;;;;;21.30;51.60;;;21.89;34.24;98783.94;5054389;27;124262;-81
2023/05/28 08:35:10;;;;;;;;;;;21.40;51.70;;;21.97;34.16;98776.38;5060155;27;124038;-82
2023/05/28 08:37:36;;;;;;;;;;;21.40;51.70;;;22.03;33.80;98766.38;5059818;27;114877;-82
2023/05/28 08:40:08;;;;;;;;;;;21.50;51.10;;;22.07;33.91;98772.84;5059669;27;113513;-82
2023/05/28 08:42:35;;;;;;;;;;;21.50;51.20;;;22.11;33.67;98764.44;5056442;27;124257;-82
2023/05/28 08:45:06;;;;;;;;;;;21.50;51.30;;;22.15;33.97;98766.06;5040345;27;123044;-81
2023/05/28 08:47:33;;;;;;;;;;;21.50;51.50;;;22.19;33.92;98754.88;5056868;27;114571;-81
2023/05/28 08:50:09;;;;;;;;;;;21.60;51.50;;;22.26;33.70;98755.72;5062670;27;113040;-83
2023/05/28 08:52:35;;;;;;;;;;;21.70;51.60;;;22.38;33.79;98759.41;5065811;27;124139;-81
2023/05/28 08:55:05;;;;;;;;;;;21.80;51.60;;;22.44;33.88;98750.22;5057031;27;123979;-83
2023/05/28 08:57:31;;;;;;;;;;;21.80;51.50;;;22.47;33.77;98749.41;5035666;27;113644;-83
2023/05/28 09:00:00;;;;;;;;;;;21.90;51.40;;;22.49;33.26;98741.41;5038636;27;114266;-82
2023/05/28 09:02:30;;;;;;;;;;;21.90;51.10;;;22.53;33.21;98746.25;5057877;27;124969;-80
2023/05/28 09:04:58;;;;;;;;;;;22.00;51.10;;;22.56;33.24;98746.25;5057256;27;124988;-80
2023/05/28 09:07:26;;;;;;;;;;;22.00;51.00;;;22.59;33.58;98745.44;5058155;27;114435;-81
2023/05/28 09:09:56;;;;;;;;;;;22.00;51.20;;;22.62;33.56;98743.84;5058194;27;113608;-81
2023/05/28 09:12:23;;;;;;;;;;;22.00;51.20;;;22.64;33.77;98735.81;5065422;27;124821;-81
2023/05/28 09:14:55;;;;;;;;;;;22.10;51.40;;;22.66;33.63;98731.41;5066059;27;124310;-81
2023/05/28 09:17:43;;;;;;;;;;;22.10;51.40;;;22.65;33.78;98729.81;5063077;27;115620;-80
2023/05/28 09:20:19;;;;;;;;;;;22.20;51.30;;;22.68;33.84;98729.03;5060952;27;114679;-81
2023/05/28 09:22:46;;;;;;;;;;;22.20;51.50;;;22.68;33.65;98725.41;5048546;27;124715;-80
2023/05/28 09:25:21;;;;;;;;;;;22.20;51.30;;;22.71;33.84;98727.41;5059572;27;123961;-79
2023/05/28 09:27:48;;;;;;;;;;;22.30;51.50;;;22.77;33.63;98728.66;5052638;27;114941;-79
2023/05/28 09:30:17;;;;;;;;;;;22.30;51.50;;;22.85;33.75;98724.66;5056012;27;113564;-80
2023/05/28 09:32:43;;;;;;;;;;;22.30;51.40;;;22.91;33.61;98723.06;5063899;27;123269;-79
2023/05/28 09:35:10;;;;;;;;;;;22.40;51.40;;;22.97;33.50;98722.69;5055862;27;123847;-79
2023/05/28 09:37:42;;;;;;;;;;;22.50;51.10;;;22.99;33.30;98711.84;5066524;27;114554;-80
2023/05/28 09:40:11;;;;;;;;;;;22.50;51.00;;;23.00;33.51;98716.25;5061949;27;113615;-80
2023/05/28 09:42:43;;;;;;;;;;;22.50;51.40;;;23.05;33.44;98719.53;5080619;27;124384;-80
2023/05/28 09:45:10;;;;;;;;;;;22.60;51.40;;;23.12;33.37;98713.88;5055134;27;123393;-81
2023/05/28 09:47:43;;;;;;;;;;;22.60;51.20;;;23.19;33.15;98715.13;5073095;27;115054;-81
2023/05/28 09:50:11;;;;;;;;;;;22.70;51.20;;;23.27;33.09;98713.94;5059381;27;113909;-80
2023/05/28 09:52:46;;;;;;;;;;;22.70;50.80;;;23.35;32.63;98704.28;5048244;27;124095;-80
2023/05/28 09:55:20;;;;;;;;;;;22.80;50.30;;;23.43;31.99;98714.38;5060681;27;124616;-80
2023/05/28 09:57:58;;;;;;;;;;;22.80;49.50;;;23.48;31.41;98710.31;5070402;27;114313;-80
2023/05/28 10:00:30;;;;;;;;;;;22.90;49.00;;;23.51;31.56;98698.25;5050401;27;114380;-80
2023/05/28 10:03:17;;;;;;;;;;;22.90;48.50;;;23.54;31.44;98706.72;5058442;27;124360;-81
2023/05/28 10:05:44;;;;;;;;;;;23.00;48.70;;;23.63;31.70;98706.31;5070038;27;124448;-80
2023/05/28 10:08:19;;;;;;;;;;;23.10;48.80;;;23.65;30.94;98709.53;5059512;27;116063;-81
2023/05/28 10:10:55;;;;;;;;;;;23.10;48.20;;;23.68;31.08;98705.09;5055025;27;114013;-81
2023/05/28 10:13:21;;;;;;;;;;;23.10;48.30;;;23.71;31.39;98693.84;5088400;27;123572;-82
2023/05/28 10:15:48;;;;;;;;;;;23.20;48.70;;;23.74;31.04;98704.31;5087645;27;123696;-81
2023/05/28 10:18:19;;;;;;;;;;;23.20;48.40;;;23.78;30.81;98696.66;5064667;27;114328;-81
2023/05/28 10:20:46;;;;;;;;;;;23.30;48.10;;;23.85;30.58;98695.84;5068928;27;113720;-80
2023/05/28 10:23:18;;;;;;;;;;;23.30;47.50;;;23.91;29.55;98699.06;5069785;27;124266;-81
2023/05/28 10:25:44;;;;;;;;;;;23.30;46.30;;;23.94;30.26;98701.09;5054882;27;123181;-80
2023/05/28 10:28:17;;;;;;;;;;;23.40;46.90;;;24.01;30.76;98699.06;5070066;27;114291;-78
2023/05/28 10:30:44;;;;;;;;;;;23.40;47.90;;;24.06;31.09;98700.66;5071357;27;114146;-79
2023/05/28 10:33:16;;;;;;;;;;;23.50;48.20;;;24.10;31.22;98704.31;5089437;27;124810;-80
2023/05/28 10:35:56;;;;;;;;;;;23.50;48.40;;;24.12;31.58;98699.03;5074122;27;124450;-79
2023/05/28 10:38:23;;;;;;;;;;;23.60;48.50;;;24.16;31.36;98702.66;5090635;27;114680;-80
2023/05/28 10:40:59;;;;;;;;;;;23.70;48.50;;;24.19;31.22;98695.41;5069084;27;111812;-80
2023/05/28 10:43:41;;;;;;;;;;;23.70;48.70;;;24.25;31.57;98697.38;5068180;27;124448;-82
2023/05/28 10:46:30;;;;;;;;;;;23.80;49.10;;;24.33;31.65;98700.22;5062634;27;124303;-82
2023/05/28 10:49:08;;;;;;;;;;;23.80;49.20;;;24.39;31.41;98707.03;5073898;27;114735;-79
2023/05/28 10:51:57;;;;;;;;;;;23.90;49.10;;;24.44;31.56;98706.66;5084435;27;114267;-79
2023/05/28 10:54:29;;;;;;;;;;;23.90;49.30;;;24.44;31.76;98709.47;5056100;27;123773;-81
2023/05/28 10:57:18;;;;;;;;;;;24.00;49.40;;;24.47;31.57;98700.19;5084519;27;124591;-80
2023/05/28 10:59:52;;;;;;;;;;;24.00;49.10;;;24.53;31.31;98687.28;5057498;27;115323;-79
2023/05/28 11:02:28;;;;;;;;;;;24.10;49.00;;;24.59;31.49;98691.28;5065567;27;112183;-83
2023/05/28 11:04:56;;;;;;;;;;;24.10;49.00;;;24.67;31.51;98686.41;5056191;27;124431;-80
2023/05/28 11:07:52;;;;;;;;;;;24.20;49.10;;;24.73;31.05;98683.94;5061375;27;124189;-80
2023/05/28 11:10:19;;;;;;;;;;;24.20;49.00;;;24.80;31.20;98678.28;5040672;27;113503;-80
2023/05/28 11:12:45;;;;;;;;;;;24.30;49.00;;;24.89;30.59;98675.78;5034574;27;113341;-80
2023/05/28 11:15:14;;;;;;;;;;;24.30;48.30;;;24.94;29.60;98675.38;5056372;27;124273;-80